Time;durP1;ratioP1;P1;durP2;ratioP2;P2;SDS_P1;SDS_P2;PMS_P1;PMS_P2;Temp;Humidity;BMP_temperature;BMP_pressure;BME280_temperature;BME280_humidity;BME280_pressure;Samples;Min_cycle;Max_cycle;Signal;HPM_P1;HPM_P2
2021/04/22 00:01:17;;;;;;;30.30;18.60;;;205.30;2252.80;;;;;;5094504;28;20467;-84
2021/04/22 00:03:43;;;;;;;26.92;18.55;;;205.40;2252.80;;;;;;5094489;28;20067;-84
2021/04/22 00:06:09;;;;;;;38.85;22.40;;;205.40;2252.80;;;;;;5093718;28;20020;-84
2021/04/22 00:08:35;;;;;;;29.10;18.92;;;205.50;2252.80;;;;;;5093763;28;20036;-85
2021/04/22 00:11:01;;;;;;;30.40;16.90;;;205.40;2252.80;;;;;;5093903;28;20035;-83
2021/04/22 00:13:29;;;;;;;29.83;20.08;;;205.20;2252.80;;;;;;5093577;28;20027;-84
2021/04/22 00:15:55;;;;;;;27.83;17.63;;;205.20;2252.80;;;;;;5094056;28;20033;-83
2021/04/22 00:18:21;;;;;;;28.98;18.95;;;205.10;2252.80;;;;;;5093973;28;20032;-85
2021/04/22 00:20:48;;;;;;;28.15;18.33;;;205.10;2252.80;;;;;;5093916;28;20451;-85
2021/04/22 00:23:15;;;;;;;30.60;18.48;;;205.30;2252.80;;;;;;5092706;28;20050;-84
2021/04/22 00:25:41;;;;;;;29.33;19.13;;;205.00;2252.80;;;;;;5110824;28;20035;-84
2021/04/22 00:28:08;;;;;;;35.53;20.15;;;205.20;2252.80;;;;;;5109701;28;20113;-84
2021/04/22 00:30:34;;;;;;;32.50;20.25;;;205.00;2252.80;;;;;;5110711;28;20031;-86
2021/04/22 00:33:07;;;;;;;29.85;18.45;;;204.90;2252.80;;;;;;5111105;28;20020;-86
2021/04/22 00:35:33;;;;;;;30.77;18.52;;;180.10;2252.80;;;;;;5110750;28;20032;-85
2021/04/22 00:37:59;;;;;;;31.77;18.52;;;204.80;2252.80;;;;;;5110787;28;20043;-85
2021/04/22 00:40:27;;;;;;;31.27;19.27;;;204.80;2252.80;;;;;;5110651;28;20024;-84
2021/04/22 00:42:53;;;;;;;32.17;21.38;;;180.10;2252.80;;;;;;5110622;28;20069;-86
2021/04/22 00:45:20;;;;;;;30.58;19.67;;;180.00;2252.80;;;;;;5094798;28;20111;-85
2021/04/22 00:47:47;;;;;;;41.75;21.83;;;180.00;2252.80;;;;;;5110755;28;20032;-85
2021/04/22 00:50:17;;;;;;;40.22;24.58;;;180.00;2252.80;;;;;;5111128;28;20402;-85
2021/04/22 00:52:43;;;;;;;49.67;25.88;;;179.80;2252.80;;;;;;5111128;28;20032;-85
2021/04/22 00:55:10;;;;;;;50.42;28.38;;;179.90;2252.80;;;;;;5110376;28;20084;-86
2021/04/22 00:57:36;;;;;;;43.70;24.40;;;179.70;2252.80;;;;;;5111164;28;20036;-86
2021/04/22 01:00:06;;;;;;;34.90;22.85;;;179.80;2252.80;;;;;;5110354;28;20028;-87
2021/04/22 01:02:32;;;;;;;37.88;23.50;;;180.10;2252.80;;;;;;5093261;28;20052;-85
2021/04/22 01:04:58;;;;;;;39.55;25.17;;;180.00;2252.80;;;;;;5110856;28;20028;-88
2021/04/22 01:07:24;;;;;;;49.92;26.70;;;180.10;2252.80;;;;;;5110237;28;20028;-86
2021/04/22 01:09:50;;;;;;;48.33;27.73;;;204.80;2252.80;;;;;;5093210;28;20024;-86
2021/04/22 01:12:16;;;;;;;48.67;29.35;;;204.80;2252.80;;;;;;5110155;28;20025;-87
2021/04/22 01:14:42;;;;;;;47.05;28.17;;;179.90;2252.80;;;;;;5110781;28;20127;-85
2021/04/22 01:17:09;;;;;;;48.33;29.33;;;179.90;2252.80;;;;;;5110009;28;20502;-85
2021/04/22 01:19:35;;;;;;;55.75;30.92;;;179.90;2252.80;;;;;;5111948;28;20034;-87
2021/04/22 01:22:02;;;;;;;61.88;38.25;;;180.00;2252.80;;;;;;5114195;28;20471;-85
2021/04/22 01:24:27;;;;;;;65.88;39.95;;;179.80;2252.80;;;;;;5114078;28;20032;-86
2021/04/22 01:26:53;;;;;;;62.67;39.28;;;179.90;2252.80;;;;;;5114171;28;20040;-87
2021/04/22 01:29:19;;;;;;;61.30;36.10;;;179.90;2252.80;;;;;;5114768;28;20023;-88
2021/04/22 01:31:45;;;;;;;57.35;35.38;;;179.80;2252.80;;;;;;5114106;28;20459;-87
2021/04/22 01:34:11;;;;;;;53.22;37.60;;;179.70;2252.80;;;;;;5114047;28;20024;-87
2021/04/22 01:36:43;;;;;;;51.63;33.92;;;179.80;2252.80;;;;;;5114047;28;20034;-87
2021/04/22 01:39:12;;;;;;;60.50;39.83;;;179.70;2252.80;;;;;;5097826;28;20078;-87
2021/04/22 01:41:39;;;;;;;54.15;35.20;;;179.70;2252.80;;;;;;5113982;28;20073;-86
2021/04/22 01:44:06;;;;;;;46.65;29.65;;;179.80;2252.80;;;;;;5113909;28;20069;-86
2021/04/22 01:46:32;;;;;;;49.15;31.08;;;179.70;2252.80;;;;;;5113714;28;20020;-86
2021/04/22 01:48:58;;;;;;;58.53;35.60;;;179.80;2252.80;;;;;;5113834;28;20024;-84
2021/04/22 01:51:24;;;;;;;47.05;29.98;;;179.70;2252.80;;;;;;5113806;28;20157;-85
2021/04/22 01:53:50;;;;;;;46.20;27.98;;;179.70;2252.80;;;;;;5113586;28;20481;-87
2021/04/22 01:56:18;;;;;;;40.38;23.80;;;179.70;2252.80;;;;;;5096732;28;20031;-88
2021/04/22 01:58:44;;;;;;;50.33;27.77;;;179.80;2252.80;;;;;;5113778;27;20115;-87
2021/04/22 02:01:10;;;;;;;39.72;25.95;;;179.80;2252.80;;;;;;5113568;28;20032;-85
2021/04/22 02:03:37;;;;;;;40.83;27.67;;;179.80;2252.80;;;;;;5113586;27;20135;-86
2021/04/22 02:06:08;;;;;;;48.22;29.45;;;179.80;2252.80;;;;;;5113381;28;20031;-85
2021/04/22 02:08:35;;;;;;;44.40;27.45;;;179.50;2252.80;;;;;;5113390;28;20029;-87
2021/04/22 02:11:02;;;;;;;38.95;23.95;;;179.30;2252.80;;;;;;5113360;28;20025;-85
2021/04/22 02:13:30;;;;;;;47.78;29.33;;;179.40;2252.80;;;;;;5112986;28;20120;-85
2021/04/22 02:15:56;;;;;;;53.25;28.08;;;154.40;2252.80;;;;;;5113097;28;20512;-86
2021/04/22 02:18:21;;;;;;;44.03;24.27;;;179.20;2252.80;;;;;;5113149;28;20118;-84
2021/04/22 02:20:49;;;;;;;40.33;25.75;;;179.40;2252.80;;;;;;5112995;28;20028;-85
2021/04/22 02:23:19;;;;;;;39.05;24.48;;;179.40;2252.80;;;;;;5113051;28;20034;-85
2021/04/22 02:25:46;;;;;;;39.83;25.33;;;179.40;2252.80;;;;;;5112892;28;20067;-84
2021/04/22 02:28:12;;;;;;;40.58;26.25;;;179.40;2252.80;;;;;;5112787;28;20035;-84
2021/04/22 02:30:40;;;;;;;38.75;23.25;;;179.30;2252.80;;;;;;5112984;28;20024;-86
2021/04/22 02:33:08;;;;;;;35.00;21.85;;;179.20;2252.80;;;;;;5112708;28;20032;-85
2021/04/22 02:35:37;;;;;;;33.20;20.85;;;179.20;2252.80;;;;;;5112852;28;20028;-84
2021/04/22 02:38:06;;;;;;;32.47;22.45;;;154.50;2252.80;;;;;;5097246;28;20161;-86
2021/04/22 02:40:33;;;;;;;34.70;22.92;;;179.30;2252.80;;;;;;5112390;28;20020;-85
2021/04/22 02:43:01;;;;;;;32.90;21.02;;;179.20;2252.80;;;;;;5113430;28;20028;-86
2021/04/22 02:45:32;;;;;;;30.67;21.00;;;179.20;2252.80;;;;;;5096986;28;20032;-86
2021/04/22 02:47:58;;;;;;;36.40;21.48;;;154.50;2252.80;;;;;;5112847;28;20036;-86
2021/04/22 02:50:31;;;;;;;36.20;23.13;;;154.50;2252.80;;;;;;5112783;28;20023;-85
2021/04/22 02:52:57;;;;;;;41.00;24.63;;;154.40;2252.80;;;;;;5113430;28;20024;-86
2021/04/22 02:55:23;;;;;;;41.63;23.13;;;154.50;2252.80;;;;;;5112650;28;20039;-87
2021/04/22 02:57:49;;;;;;;33.42;22.83;;;154.50;2252.80;;;;;;5113164;28;20024;-86
2021/04/22 03:00:21;;;;;;;34.60;23.15;;;179.40;2252.80;;;;;;5112595;28;20110;-85
2021/04/22 03:02:48;;;;;;;45.80;27.33;;;179.30;2252.80;;;;;;5111864;28;20101;-87
2021/04/22 03:05:14;;;;;;;47.85;29.70;;;179.40;2252.80;;;;;;5112168;28;20051;-86
2021/04/22 03:07:40;;;;;;;39.08;25.25;;;179.30;2252.80;;;;;;5112018;28;20043;-86
2021/04/22 03:10:09;;;;;;;42.35;23.48;;;179.20;2252.80;;;;;;5112868;28;20020;-85
2021/04/22 03:12:35;;;;;;;58.60;33.55;;;179.30;2252.80;;;;;;5112546;28;20513;-87
2021/04/22 03:15:02;;;;;;;44.25;27.90;;;154.30;2252.80;;;;;;5112185;28;20416;-87
2021/04/22 03:17:28;;;;;;;42.28;27.30;;;153.90;2252.80;;;;;;5112002;28;20028;-85
2021/04/22 03:19:54;;;;;;;41.53;24.50;;;154.10;2252.80;;;;;;5112126;28;20528;-86
2021/04/22 03:22:20;;;;;;;33.40;19.58;;;154.10;2252.80;;;;;;5094984;28;20028;-85
2021/04/22 03:24:46;;;;;;;28.13;19.10;;;154.10;2252.80;;;;;;5096068;28;20021;-88
2021/04/22 03:27:12;;;;;;;28.35;20.08;;;153.80;2252.80;;;;;;5094366;28;20032;-87
2021/04/22 03:29:38;;;;;;;32.88;19.55;;;154.00;2252.80;;;;;;5095007;28;20024;-87
2021/04/22 03:32:05;;;;;;;39.70;23.70;;;154.10;2252.80;;;;;;5094977;28;20024;-86
2021/04/22 03:34:30;;;;;;;50.15;30.15;;;154.30;2252.80;;;;;;5094539;28;20028;-86
2021/04/22 03:36:56;;;;;;;32.88;20.58;;;154.40;2252.80;;;;;;5095117;28;20082;-85
2021/04/22 03:39:22;;;;;;;31.40;18.92;;;153.90;2252.80;;;;;;5095007;28;20388;-87
2021/04/22 03:41:48;;;;;;;34.97;21.23;;;153.80;2252.80;;;;;;5094115;28;20024;-86
2021/04/22 03:44:14;;;;;;;31.10;18.73;;;153.70;2252.80;;;;;;5094360;28;20054;-85
2021/04/22 03:46:39;;;;;;;39.38;22.65;;;153.90;2252.80;;;;;;5094453;28;20093;-86
2021/04/22 03:49:05;;;;;;;40.97;25.10;;;153.80;2252.80;;;;;;5095165;28;20020;-86
2021/04/22 03:51:32;;;;;;;37.78;23.67;;;153.90;2252.80;;;;;;5095741;28;20035;-87
2021/04/22 03:53:58;;;;;;;37.97;22.75;;;153.80;2252.80;;;;;;5095415;28;20405;-85
2021/04/22 03:56:24;;;;;;;39.10;21.58;;;153.90;2252.80;;;;;;5094951;28;20020;-88
2021/04/22 03:58:50;;;;;;;33.63;20.60;;;153.80;2252.80;;;;;;5095351;28;20383;-88
2021/04/22 04:01:16;;;;;;;32.28;18.48;;;153.70;2252.80;;;;;;5094859;28;20451;-83
2021/04/22 04:03:41;;;;;;;29.83;18.13;;;153.80;2252.80;;;;;;5093724;28;20597;-87
2021/04/22 04:06:07;;;;;;;55.63;27.70;;;153.70;2252.80;;;;;;5093860;28;20030;-84
2021/04/22 04:08:33;;;;;;;174.57;70.25;;;128.90;2252.80;;;;;;5095198;28;20058;-86
2021/04/22 04:10:59;;;;;;;114.03;48.55;;;128.90;2252.80;;;;;;5095479;28;20020;-84
2021/04/22 04:13:25;;;;;;;83.70;33.42;;;153.60;2252.80;;;;;;5094074;28;20078;-87
2021/04/22 04:15:51;;;;;;;75.95;35.72;;;153.70;2252.80;;;;;;5094656;28;20413;-87
2021/04/22 04:18:21;;;;;;;105.68;60.13;;;153.80;2252.80;;;;;;5093855;28;20027;-86
2021/04/22 04:20:48;;;;;;;104.47;56.20;;;153.70;2252.80;;;;;;5094005;28;20467;-86
2021/04/22 04:23:14;;;;;;;68.38;40.40;;;128.90;2252.80;;;;;;5094050;28;20070;-87
2021/04/22 04:25:40;;;;;;;43.50;29.42;;;153.60;2252.80;;;;;;5094328;28;20376;-83
2021/04/22 04:28:07;;;;;;;50.97;34.00;;;128.90;2252.80;;;;;;5094132;28;20070;-83
2021/04/22 04:30:33;;;;;;;63.63;39.42;;;128.90;2252.80;;;;;;5093680;28;20097;-82
2021/04/22 04:32:59;;;;;;;60.13;40.20;;;153.70;2252.80;;;;;;5093905;28;20464;-84
2021/04/22 04:35:25;;;;;;;70.25;44.67;;;154.00;2252.80;;;;;;5093538;28;20024;-87
2021/04/22 04:37:51;;;;;;;59.75;41.67;;;154.40;2252.80;;;;;;5093388;28;20028;-86
2021/04/22 04:40:17;;;;;;;53.08;33.47;;;154.00;2252.80;;;;;;5093421;28;20036;-86
2021/04/22 04:42:44;;;;;;;40.60;26.40;;;153.80;2252.80;;;;;;5093644;28;20025;-87
2021/04/22 04:45:16;;;;;;;42.75;23.95;;;128.90;2252.80;;;;;;5093735;28;20032;-83
2021/04/22 04:47:42;;;;;;;41.00;22.90;;;153.80;2252.80;;;;;;5093460;28;20036;-86
2021/04/22 04:50:09;;;;;;;39.28;23.30;;;153.80;2252.80;;;;;;5093712;28;20020;-86
2021/04/22 04:52:35;;;;;;;40.17;24.40;;;154.00;2252.80;;;;;;5093016;28;20028;-87
2021/04/22 04:55:02;;;;;;;44.83;23.83;;;154.10;2252.80;;;;;;5094035;28;20477;-84
2021/04/22 04:57:28;;;;;;;26.83;20.92;;;153.90;2252.80;;;;;;5094146;28;20097;-86
2021/04/22 04:59:53;;;;;;;35.53;23.25;;;153.80;2252.80;;;;;;5093704;28;20036;-86
2021/04/22 05:02:19;;;;;;;39.03;25.63;;;153.80;2252.80;;;;;;5093292;28;20047;-86
2021/04/22 05:04:45;;;;;;;43.58;29.10;;;153.70;2252.80;;;;;;5093585;28;20027;-86
2021/04/22 05:07:11;;;;;;;49.35;31.42;;;154.00;2252.80;;;;;;5093123;28;20036;-85
2021/04/22 05:09:40;;;;;;;34.00;26.67;;;154.10;2252.80;;;;;;5093367;28;20024;-85
2021/04/22 05:12:08;;;;;;;39.10;26.65;;;154.10;2252.80;;;;;;5094722;28;20016;-83
2021/04/22 05:14:34;;;;;;;52.70;30.08;;;154.10;2252.80;;;;;;5093176;28;20388;-85
2021/04/22 05:17:00;;;;;;;41.80;26.13;;;154.00;2252.80;;;;;;5093269;28;20039;-85
2021/04/22 05:19:26;;;;;;;41.58;27.33;;;154.20;2252.80;;;;;;5093257;28;20028;-84
2021/04/22 05:21:53;;;;;;;44.22;27.40;;;154.20;2252.80;;;;;;5093158;28;20027;-85
2021/04/22 05:24:19;;;;;;;36.10;24.73;;;154.40;2252.80;;;;;;5093471;28;20028;-85
2021/04/22 05:26:45;;;;;;;45.40;29.45;;;154.50;2252.80;;;;;;5093227;28;20036;-86
2021/04/22 05:29:11;;;;;;;44.70;27.45;;;154.40;2252.80;;;;;;5093233;28;20028;-85
2021/04/22 05:31:36;;;;;;;43.25;26.70;;;154.40;2252.80;;;;;;5093191;28;20478;-83
2021/04/22 05:34:03;;;;;;;60.17;33.15;;;154.50;2252.80;;;;;;5094434;28;20028;-86
2021/04/22 05:36:29;;;;;;;57.83;36.38;;;179.20;2252.80;;;;;;5093141;28;20031;-85
2021/04/22 05:38:54;;;;;;;51.60;33.80;;;179.20;2252.80;;;;;;5093212;28;20021;-87
2021/04/22 05:41:20;;;;;;;40.47;27.92;;;179.50;2252.80;;;;;;5093293;28;20086;-87
2021/04/22 05:43:46;;;;;;;47.28;31.23;;;179.60;2252.80;;;;;;5093118;28;20035;-87
2021/04/22 05:46:12;;;;;;;49.35;32.22;;;179.70;2252.80;;;;;;5093184;28;20024;-87
2021/04/22 05:48:38;;;;;;;38.05;25.60;;;179.80;2252.80;;;;;;5092986;28;20028;-87
2021/04/22 05:51:04;;;;;;;47.88;28.85;;;180.00;2252.80;;;;;;5093150;28;20027;-87
2021/04/22 05:53:30;;;;;;;47.63;28.60;;;180.10;2252.80;;;;;;5093669;28;20039;-88
2021/04/22 05:55:55;;;;;;;43.38;26.30;;;204.90;2252.80;;;;;;5092970;28;20024;-87
2021/04/22 05:58:21;;;;;;;47.92;30.13;;;205.10;2252.80;;;;;;5093031;28;20063;-86
2021/04/22 06:00:47;;;;;;;44.92;27.90;;;205.10;2252.80;;;;;;5093058;28;20028;-86
2021/04/22 06:03:13;;;;;;;47.78;26.05;;;205.10;2252.80;;;;;;5092326;28;20094;-86
2021/04/22 06:05:39;;;;;;;42.50;24.27;;;205.20;2252.80;;;;;;5094672;28;20537;-87
2021/04/22 06:08:05;;;;;;;40.67;24.85;;;205.30;2252.80;;;;;;5096495;28;20039;-85
2021/04/22 06:10:31;;;;;;;50.40;35.95;;;205.40;2252.80;;;;;;5096203;28;20071;-86
2021/04/22 06:12:57;;;;;;;43.08;32.20;;;205.40;2252.80;;;;;;5096441;28;20483;-88
2021/04/22 06:15:22;;;;;;;49.63;34.55;;;205.60;2252.80;;;;;;5096306;28;20047;-86
2021/04/22 06:17:49;;;;;;;38.53;32.35;;;205.60;2252.80;;;;;;5096318;28;20040;-86
2021/04/22 06:20:18;;;;;;;33.05;27.98;;;205.70;2252.80;;;;;;5096344;28;20020;-86
2021/04/22 06:22:49;;;;;;;32.17;19.98;;;230.40;2252.80;;;;;;5095449;28;20040;-85
2021/04/22 06:25:18;;;;;;;46.28;34.38;;;230.60;2252.80;;;;;;5095893;28;20020;-87
2021/04/22 06:27:44;;;;;;;52.80;41.38;;;230.60;2252.80;;;;;;5095343;28;20070;-84
2021/04/22 06:30:11;;;;;;;47.28;40.85;;;230.80;2252.80;;;;;;5095904;28;20123;-86
2021/04/22 06:32:37;;;;;;;39.30;25.80;;;231.00;2252.80;;;;;;5095729;28;20024;-84
2021/04/22 06:35:08;;;;;;;36.53;26.45;;;231.00;2252.80;;;;;;5096363;28;20468;-85
2021/04/22 06:37:34;;;;;;;27.98;18.55;;;231.20;2252.80;;;;;;5095619;28;20032;-85
2021/04/22 06:40:00;;;;;;;42.72;28.40;;;231.30;2252.80;;;;;;5096143;28;20028;-87
2021/04/22 06:42:26;;;;;;;22.38;12.82;;;256.00;2252.80;;;;;;5096109;28;20027;-85
2021/04/22 06:44:53;;;;;;;15.65;10.68;;;256.10;2252.80;;;;;;5095030;28;20375;-85
2021/04/22 06:47:20;;;;;;;19.10;12.23;;;256.40;2252.80;;;;;;5113742;28;20456;-85
2021/04/22 06:49:46;;;;;;;20.58;11.73;;;256.50;2252.80;;;;;;5112702;28;20031;-85
2021/04/22 06:52:12;;;;;;;18.63;10.75;;;256.50;2252.80;;;;;;5112739;28;20020;-84
2021/04/22 06:54:38;;;;;;;27.50;15.48;;;256.50;2252.80;;;;;;5097442;28;20114;-85
2021/04/22 06:57:04;;;;;;;17.77;11.55;;;256.70;2252.80;;;;;;5114678;27;20063;-85
2021/04/22 06:59:29;;;;;;;16.95;11.35;;;256.90;2252.80;;;;;;5114081;28;20174;-84
2021/04/22 07:01:56;;;;;;;14.93;10.85;;;281.60;2278.40;;;;;;5112634;28;20024;-84
2021/04/22 07:04:22;;;;;;;21.20;12.23;;;281.70;2278.40;;;;;;5113001;28;20384;-84
2021/04/22 07:06:48;;;;;;;16.73;11.82;;;281.80;2278.40;;;;;;5112032;28;20025;-85
2021/04/22 07:09:16;;;;;;;14.45;10.40;;;282.00;2278.40;;;;;;5112493;28;20024;-84
2021/04/22 07:11:42;;;;;;;12.15;8.75;;;282.10;2278.40;;;;;;5095164;28;20028;-85
2021/04/22 07:14:08;;;;;;;20.35;11.82;;;282.20;2278.40;;;;;;5112268;28;20020;-85
2021/04/22 07:16:37;;;;;;;18.00;11.38;;;282.40;2278.40;;;;;;5111058;28;20031;-85
2021/04/22 07:19:06;;;;;;;16.80;11.38;;;282.50;2278.40;;;;;;5112013;28;20028;-84
2021/04/22 07:21:32;;;;;;;17.52;11.15;;;307.30;2304.00;;;;;;5112354;28;20028;-84
2021/04/22 07:23:58;;;;;;;17.65;12.43;;;307.60;2304.00;;;;;;5112148;28;20024;-85
2021/04/22 07:26:24;;;;;;;20.55;13.65;;;307.80;2304.00;;;;;;5096217;28;20081;-84
2021/04/22 07:28:50;;;;;;;21.05;13.57;;;307.80;2304.00;;;;;;5111892;28;20408;-85
2021/04/22 07:31:17;;;;;;;15.93;10.52;;;307.90;2304.00;;;;;;5112026;28;20024;-83
2021/04/22 07:33:43;;;;;;;14.43;9.50;;;308.10;2304.00;;;;;;5112548;27;20034;-84
2021/04/22 07:36:08;;;;;;;15.45;10.32;;;308.00;2304.00;;;;;;5112034;28;20511;-84
2021/04/22 07:38:34;;;;;;;14.45;9.13;;;332.90;2329.60;;;;;;5112299;28;20028;-85
2021/04/22 07:41:00;;;;;;;17.35;10.27;;;333.00;2329.60;;;;;;5111731;28;20507;-84
2021/04/22 07:43:26;;;;;;;17.50;10.38;;;333.20;2329.60;;;;;;5111660;28;20020;-86
2021/04/22 07:45:52;;;;;;;12.98;9.35;;;333.40;2278.40;;;;;;5111558;28;20459;-83
2021/04/22 07:48:18;;;;;;;14.68;9.95;;;333.60;2304.00;;;;;;5092946;28;20059;-83
2021/04/22 07:50:43;;;;;;;12.82;9.55;;;358.40;2227.20;;;;;;5094376;28;20468;-82
2021/04/22 07:53:10;;;;;;;16.65;10.80;;;358.50;2150.40;;;;;;5093658;28;20024;-83
2021/04/22 07:55:44;;;;;;;13.07;9.07;;;358.80;2176.00;;;;;;5094061;28;20349;-82
2021/04/22 07:58:10;;;;;;;19.38;12.70;;;358.90;2073.60;;;;;;5094300;28;20043;-83
2021/04/22 08:00:37;;;;;;;16.10;7.20;;;359.10;1996.80;;;;;;5094115;28;20024;-84
2021/04/22 08:03:04;;;;;;;12.75;7.00;;;359.20;1894.40;;;;;;5092096;28;20048;-82
2021/04/22 08:05:35;;;;;;;13.95;8.05;;;384.00;1868.80;;;;;;5093616;28;20174;-84
2021/04/22 08:08:01;;;;;;;16.05;5.20;;;384.30;1894.40;;;;;;5093748;28;20051;-82
2021/04/22 08:10:29;;;;;;;14.50;5.88;;;384.40;1766.40;;;;;;5093760;28;20020;-83
2021/04/22 08:12:55;;;;;;;13.20;6.95;;;384.40;1740.80;;;;;;5094089;28;20027;-82
2021/04/22 08:15:22;;;;;;;10.30;5.57;;;384.70;1792.00;;;;;;5094386;28;20027;-82
2021/04/22 08:17:48;;;;;;;13.27;6.88;;;384.80;1766.40;;;;;;5093529;28;20093;-83
2021/04/22 08:20:24;;;;;;;9.00;5.82;;;384.40;1766.40;;;;;;5093875;28;20024;-85
2021/04/22 08:22:50;;;;;;;8.50;6.18;;;409.60;1817.60;;;;;;5093624;28;20024;-84
2021/04/22 08:25:26;;;;;;;12.10;7.40;;;409.60;1792.00;;;;;;5091908;28;20023;-84
2021/04/22 08:27:54;;;;;;;12.35;8.55;;;384.90;1766.40;;;;;;5110922;28;20490;-78
2021/04/22 08:30:23;;;;;;;13.00;8.00;;;409.60;1817.60;;;;;;5108401;28;20032;-77
2021/04/22 08:32:50;;;;;;;13.07;7.43;;;384.80;1843.20;;;;;;5109885;28;20050;-76
2021/04/22 08:35:16;;;;;;;13.70;9.70;;;384.90;1843.20;;;;;;5110190;28;20032;-75
2021/04/22 08:37:42;;;;;;;11.48;7.72;;;409.70;1868.80;;;;;;5093989;28;20422;-78
2021/04/22 08:40:10;;;;;;;18.95;14.20;;;410.00;1792.00;;;;;;5094691;28;20032;-84
2021/04/22 08:42:37;;;;;;;18.85;12.38;;;410.20;1766.40;;;;;;5109914;28;20027;-83
2021/04/22 08:45:06;;;;;;;18.48;9.63;;;410.50;1715.20;;;;;;5110110;28;20028;-83
2021/04/22 08:47:33;;;;;;;28.77;12.27;;;435.30;1715.20;;;;;;5110043;28;20043;-80
2021/04/22 08:49:59;;;;;;;14.30;8.02;;;435.50;1638.40;;;;;;5110059;28;20383;-82
2021/04/22 08:52:25;;;;;;;13.45;8.60;;;435.60;1561.60;;;;;;5109268;28;20020;-79
2021/04/22 08:54:51;;;;;;;12.32;6.55;;;435.60;1561.60;;;;;;5110680;28;20050;-80
2021/04/22 08:57:18;;;;;;;16.48;10.10;;;435.60;1536.00;;;;;;5109893;28;20035;-81
2021/04/22 08:59:44;;;;;;;18.08;10.43;;;435.80;1587.20;;;;;;5109648;28;20020;-80
2021/04/22 09:02:10;;;;;;;12.82;8.15;;;435.70;1587.20;;;;;;5109721;28;20044;-77
2021/04/22 09:04:36;;;;;;;11.45;5.97;;;435.90;1561.60;;;;;;5093640;28;20024;-77
2021/04/22 09:07:03;;;;;;;6.95;4.57;;;435.90;1536.00;;;;;;5109423;28;20032;-78
2021/04/22 09:09:29;;;;;;;7.03;5.22;;;461.10;1510.40;;;;;;5092272;28;20028;-78
2021/04/22 09:11:55;;;;;;;12.63;6.40;;;435.90;1484.80;;;;;;5109725;28;20028;-77
2021/04/22 09:14:23;;;;;;;6.72;4.53;;;435.60;1510.40;;;;;;5110059;28;20028;-75
2021/04/22 09:16:50;;;;;;;14.80;6.75;;;435.20;1536.00;;;;;;5094048;28;20444;-78
2021/04/22 09:19:19;;;;;;;12.32;5.80;;;435.30;1587.20;;;;;;5109205;28;20024;-78
2021/04/22 09:21:52;;;;;;;11.90;7.28;;;435.40;1510.40;;;;;;5094140;28;20016;-76
2021/04/22 09:24:21;;;;;;;12.63;6.18;;;435.80;1484.80;;;;;;5093903;28;20028;-77
2021/04/22 09:26:52;;;;;;;9.73;7.13;;;436.00;1484.80;;;;;;5109384;28;20126;-80
2021/04/22 09:29:46;;;;;;;8.75;5.28;;;460.90;1587.20;;;;;;5108161;28;20027;-79
2021/04/22 09:32:24;;;;;;;8.10;4.53;;;461.20;1459.20;;;;;;5093410;28;20450;-79
2021/04/22 09:34:52;;;;;;;12.27;8.20;;;461.30;1433.60;;;;;;5092791;28;20032;-79
2021/04/22 09:37:20;;;;;;;11.85;6.05;;;461.50;1408.00;;;;;;5092512;28;20042;-82
2021/04/22 09:39:47;;;;;;;8.85;5.50;;;461.70;1356.80;;;;;;5092958;28;20024;-80
2021/04/22 09:42:17;;;;;;;8.77;5.35;;;486.40;1356.80;;;;;;5096444;28;20024;-80
2021/04/22 09:44:47;;;;;;;9.93;6.60;;;486.70;1331.20;;;;;;5095006;28;20070;-79
2021/04/22 09:47:20;;;;;;;9.05;5.65;;;486.80;1331.20;;;;;;5112938;28;20059;-81
2021/04/22 09:50:02;;;;;;;12.10;7.80;;;487.00;1305.60;;;;;;5095271;28;20451;-77
2021/04/22 09:52:32;;;;;;;11.55;7.38;;;487.10;1305.60;;;;;;5109792;28;20483;-80
2021/04/22 09:55:00;;;;;;;10.85;6.88;;;487.30;1331.20;;;;;;5095922;28;20439;-76
2021/04/22 09:57:29;;;;;;;10.88;4.88;;;512.10;1280.00;;;;;;5094467;28;20521;-78
2021/04/22 09:59:56;;;;;;;10.35;5.88;;;512.40;1280.00;;;;;;5091636;28;20051;-79
2021/04/22 10:02:23;;;;;;;8.73;5.40;;;512.40;1305.60;;;;;;5093621;28;20047;-76
2021/04/22 10:04:51;;;;;;;12.25;5.70;;;512.60;1280.00;;;;;;5093632;28;20024;-77
2021/04/22 10:07:27;;;;;;;11.60;6.68;;;512.90;1254.40;;;;;;5094508;28;20035;-77
2021/04/22 10:10:01;;;;;;;10.98;6.82;;;537.80;1280.00;;;;;;5090060;28;20024;-78
2021/04/22 10:12:34;;;;;;;10.23;5.00;;;537.90;1203.20;;;;;;5092942;28;20024;-77
2021/04/22 10:15:18;;;;;;;15.60;6.78;;;537.90;1228.80;;;;;;5091554;28;20024;-82
2021/04/22 10:18:05;;;;;;;15.20;7.53;;;538.20;1228.80;;;;;;5091363;28;20042;-81
2021/04/22 10:20:38;;;;;;;12.65;5.78;;;538.50;1228.80;;;;;;5091440;28;20023;-80
2021/04/22 10:23:07;;;;;;;8.32;3.67;;;538.50;1203.20;;;;;;5090078;28;20020;-78
2021/04/22 10:25:36;;;;;;;10.30;4.38;;;538.50;1152.00;;;;;;5090230;28;20031;-79
2021/04/22 10:28:05;;;;;;;7.65;3.50;;;563.30;1203.20;;;;;;5107902;28;20040;-78
2021/04/22 10:30:32;;;;;;;7.55;4.40;;;563.30;1228.80;;;;;;5090371;28;20138;-79
2021/04/22 10:32:59;;;;;;;7.82;4.35;;;563.60;1203.20;;;;;;5092425;28;20024;-81
2021/04/22 10:35:26;;;;;;;7.43;3.90;;;563.60;1177.60;;;;;;5090367;28;20077;-79
2021/04/22 10:37:53;;;;;;;13.52;8.48;;;563.20;1126.40;;;;;;5089756;28;20028;-79
2021/04/22 10:40:25;;;;;;;9.30;5.80;;;563.60;1152.00;;;;;;5090087;28;20448;-78
2021/04/22 10:42:56;;;;;;;7.90;3.85;;;563.90;1152.00;;;;;;5089588;28;20036;-80
2021/04/22 10:45:24;;;;;;;8.90;4.53;;;588.80;1126.40;;;;;;5103841;28;20021;-80
2021/04/22 10:47:50;;;;;;;6.00;2.90;;;588.90;1049.60;;;;;;5091676;28;20044;-80
2021/04/22 10:50:24;;;;;;;6.28;2.97;;;563.50;998.40;;;;;;5090743;28;20383;-82
2021/04/22 10:52:52;;;;;;;8.98;4.00;;;563.50;972.80;;;;;;5089396;28;20031;-79
2021/04/22 10:55:30;;;;;;;7.97;3.42;;;563.60;1049.60;;;;;;5090245;28;20020;-78
2021/04/22 10:58:11;;;;;;;9.90;3.50;;;563.60;972.80;;;;;;5091852;28;20028;-78
2021/04/22 11:00:37;;;;;;;6.93;3.90;;;563.50;972.80;;;;;;5090075;28;20045;-77
2021/04/22 11:03:03;;;;;;;6.85;3.55;;;538.50;972.80;;;;;;5091728;28;20066;-79
2021/04/22 11:05:33;;;;;;;11.13;3.63;;;563.40;998.40;;;;;;5099708;28;20051;-80
2021/04/22 11:08:05;;;;;;;11.30;3.65;;;563.60;896.00;;;;;;5088579;28;20397;-77
2021/04/22 11:10:39;;;;;;;5.40;3.50;;;563.80;793.60;;;;;;5087867;28;20460;-79
2021/04/22 11:13:17;;;;;;;9.50;3.05;;;564.00;793.60;;;;;;5090672;28;20025;-81
2021/04/22 11:15:52;;;;;;;8.93;3.08;;;564.00;793.60;;;;;;5091178;28;20064;-79
2021/04/22 11:18:18;;;;;;;12.48;3.38;;;563.60;742.40;;;;;;5089612;28;20024;-79
2021/04/22 11:20:46;;;;;;;12.45;2.90;;;563.80;742.40;;;;;;5090463;28;20024;-81
2021/04/22 11:23:22;;;;;;;6.32;3.05;;;563.80;742.40;;;;;;5090303;28;20054;-79
2021/04/22 11:25:50;;;;;;;5.15;2.30;;;563.90;742.40;;;;;;5091973;28;20107;-79
2021/04/22 11:28:34;;;;;;;6.57;2.78;;;563.60;742.40;;;;;;5090440;28;20046;-81
2021/04/22 11:31:06;;;;;;;8.02;2.90;;;563.20;716.80;;;;;;5087288;28;20468;-79
2021/04/22 11:33:32;;;;;;;9.13;3.53;;;538.50;716.80;;;;;;5106822;28;20110;-80
2021/04/22 11:36:14;;;;;;;6.63;2.92;;;538.20;716.80;;;;;;5088764;28;20043;-82
2021/04/22 11:38:53;;;;;;;7.50;2.58;;;538.00;716.80;;;;;;5087110;28;20024;-78
2021/04/22 11:41:20;;;;;;;7.30;2.63;;;512.90;716.80;;;;;;5108260;28;20483;-78
2021/04/22 11:43:47;;;;;;;9.70;3.20;;;512.80;742.40;;;;;;5091311;28;20101;-79
2021/04/22 11:46:13;;;;;;;9.65;2.70;;;512.50;768.00;;;;;;5089092;28;20077;-79
2021/04/22 11:48:43;;;;;;;8.52;3.17;;;512.30;742.40;;;;;;5106528;28;20418;-79
2021/04/22 11:51:10;;;;;;;9.43;3.67;;;512.30;742.40;;;;;;5091381;28;20032;-81
2021/04/22 11:53:40;;;;;;;10.25;4.82;;;512.40;768.00;;;;;;5092727;28;20450;-79
2021/04/22 11:56:07;;;;;;;9.30;5.90;;;512.40;768.00;;;;;;5093142;28;20434;-81
2021/04/22 11:58:38;;;;;;;7.88;4.60;;;512.40;793.60;;;;;;5090465;28;20024;-77
2021/04/22 12:01:10;;;;;;;12.40;4.53;;;512.40;793.60;;;;;;5089834;28;20074;-82
2021/04/22 12:03:39;;;;;;;7.72;4.13;;;512.20;793.60;;;;;;5090174;28;20066;-80
2021/04/22 12:06:11;;;;;;;8.07;4.30;;;512.10;793.60;;;;;;5090199;28;20054;-80